sensor_id;sensor_type;location;lat;lon;timestamp;P1;durP1;ratioP1;P2;durP2;ratioP2
9372;SDS011;10838;52.350;9.790;2023-10-31T00:00:29;3.00;;;2.80;;
9372;SDS011;10838;52.350;9.790;2023-10-31T00:02:57;3.20;;;2.97;;
9372;SDS011;10838;52.350;9.790;2023-10-31T00:05:23;3.73;;;2.73;;
9372;SDS011;10838;52.350;9.790;2023-10-31T00:07:50;6.73;;;3.30;;
9372;SDS011;10838;52.350;9.790;2023-10-31T00:10:16;4.53;;;2.67;;
9372;SDS011;10838;52.350;9.790;2023-10-31T00:12:43;8.50;;;2.80;;
9372;SDS011;10838;52.350;9.790;2023-10-31T00:15:10;2.70;;;2.47;;
9372;SDS011;10838;52.350;9.790;2023-10-31T00:17:36;4.47;;;2.30;;
9372;SDS011;10838;52.350;9.790;2023-10-31T00:20:05;9.00;;;3.03;;
9372;SDS011;10838;52.350;9.790;2023-10-31T00:22:32;5.00;;;2.53;;
9372;SDS011;10838;52.350;9.790;2023-10-31T00:24:59;3.70;;;2.70;;
9372;SDS011;10838;52.350;9.790;2023-10-31T00:27:26;2.60;;;2.40;;
9372;SDS011;10838;52.350;9.790;2023-10-31T00:29:52;4.23;;;2.70;;
9372;SDS011;10838;52.350;9.790;2023-10-31T00:32:19;4.10;;;2.73;;
9372;SDS011;10838;52.350;9.790;2023-10-31T00:34:45;5.37;;;2.63;;
9372;SDS011;10838;52.350;9.790;2023-10-31T00:37:13;2.70;;;2.50;;
9372;SDS011;10838;52.350;9.790;2023-10-31T00:39:40;2.97;;;2.77;;
9372;SDS011;10838;52.350;9.790;2023-10-31T00:42:07;3.83;;;2.90;;
9372;SDS011;10838;52.350;9.790;2023-10-31T00:44:33;4.10;;;2.80;;
9372;SDS011;10838;52.350;9.790;2023-10-31T00:47:00;3.80;;;2.93;;
9372;SDS011;10838;52.350;9.790;2023-10-31T00:49:26;6.27;;;3.40;;
9372;SDS011;10838;52.350;9.790;2023-10-31T00:51:53;4.17;;;2.70;;
9372;SDS011;10838;52.350;9.790;2023-10-31T00:54:21;5.83;;;2.93;;
9372;SDS011;10838;52.350;9.790;2023-10-31T00:56:48;5.30;;;3.23;;
9372;SDS011;10838;52.350;9.790;2023-10-31T00:59:15;3.83;;;3.17;;
9372;SDS011;10838;52.350;9.790;2023-10-31T01:01:42;3.83;;;2.63;;
9372;SDS011;10838;52.350;9.790;2023-10-31T01:04:08;3.87;;;2.77;;
9372;SDS011;10838;52.350;9.790;2023-10-31T01:06:39;4.23;;;3.07;;
9372;SDS011;10838;52.350;9.790;2023-10-31T01:09:06;3.40;;;3.13;;
9372;SDS011;10838;52.350;9.790;2023-10-31T01:11:34;3.50;;;3.20;;
9372;SDS011;10838;52.350;9.790;2023-10-31T01:14:01;4.50;;;3.00;;
9372;SDS011;10838;52.350;9.790;2023-10-31T01:16:29;4.53;;;3.30;;
9372;SDS011;10838;52.350;9.790;2023-10-31T01:18:55;6.73;;;3.07;;
9372;SDS011;10838;52.350;9.790;2023-10-31T01:21:22;5.20;;;3.17;;
9372;SDS011;10838;52.350;9.790;2023-10-31T01:23:49;7.83;;;3.67;;
9372;SDS011;10838;52.350;9.790;2023-10-31T01:26:15;6.43;;;3.50;;
9372;SDS011;10838;52.350;9.790;2023-10-31T01:28:43;4.30;;;3.50;;
9372;SDS011;10838;52.350;9.790;2023-10-31T01:31:10;4.90;;;3.97;;
9372;SDS011;10838;52.350;9.790;2023-10-31T01:33:36;7.47;;;3.80;;
9372;SDS011;10838;52.350;9.790;2023-10-31T01:36:03;6.37;;;3.77;;
9372;SDS011;10838;52.350;9.790;2023-10-31T01:38:30;7.00;;;4.03;;
9372;SDS011;10838;52.350;9.790;2023-10-31T01:40:57;4.77;;;4.27;;
9372;SDS011;10838;52.350;9.790;2023-10-31T01:43:30;7.00;;;4.30;;
9372;SDS011;10838;52.350;9.790;2023-10-31T01:45:59;6.80;;;4.50;;
9372;SDS011;10838;52.350;9.790;2023-10-31T01:48:27;4.43;;;4.10;;
9372;SDS011;10838;52.350;9.790;2023-10-31T01:50:55;7.47;;;4.50;;
9372;SDS011;10838;52.350;9.790;2023-10-31T01:53:22;12.17;;;5.00;;
9372;SDS011;10838;52.350;9.790;2023-10-31T01:55:50;6.13;;;4.63;;
9372;SDS011;10838;52.350;9.790;2023-10-31T01:58:18;6.30;;;4.67;;
9372;SDS011;10838;52.350;9.790;2023-10-31T02:00:49;6.30;;;4.80;;
9372;SDS011;10838;52.350;9.790;2023-10-31T02:03:18;6.60;;;4.20;;
9372;SDS011;10838;52.350;9.790;2023-10-31T02:05:45;4.93;;;4.40;;
9372;SDS011;10838;52.350;9.790;2023-10-31T02:08:12;9.20;;;4.13;;
9372;SDS011;10838;52.350;9.790;2023-10-31T02:10:38;6.67;;;4.50;;
9372;SDS011;10838;52.350;9.790;2023-10-31T02:13:11;5.80;;;4.57;;
9372;SDS011;10838;52.350;9.790;2023-10-31T02:15:38;7.00;;;4.53;;
9372;SDS011;10838;52.350;9.790;2023-10-31T02:18:05;9.47;;;4.83;;
9372;SDS011;10838;52.350;9.790;2023-10-31T02:20:34;7.37;;;4.67;;
9372;SDS011;10838;52.350;9.790;2023-10-31T02:23:03;6.57;;;4.40;;
9372;SDS011;10838;52.350;9.790;2023-10-31T02:25:30;4.73;;;4.30;;
9372;SDS011;10838;52.350;9.790;2023-10-31T02:27:57;5.43;;;4.83;;
9372;SDS011;10838;52.350;9.790;2023-10-31T02:30:24;6.43;;;4.67;;
9372;SDS011;10838;52.350;9.790;2023-10-31T02:32:51;4.50;;;4.10;;
9372;SDS011;10838;52.350;9.790;2023-10-31T02:35:17;6.57;;;4.77;;
9372;SDS011;10838;52.350;9.790;2023-10-31T02:37:44;6.33;;;4.77;;
9372;SDS011;10838;52.350;9.790;2023-10-31T02:40:13;5.07;;;4.67;;
9372;SDS011;10838;52.350;9.790;2023-10-31T02:42:39;5.93;;;4.87;;
9372;SDS011;10838;52.350;9.790;2023-10-31T02:45:06;9.47;;;5.03;;
9372;SDS011;10838;52.350;9.790;2023-10-31T02:47:33;5.63;;;5.23;;
9372;SDS011;10838;52.350;9.790;2023-10-31T02:50:00;5.80;;;5.03;;
9372;SDS011;10838;52.350;9.790;2023-10-31T02:52:27;11.20;;;4.90;;
9372;SDS011;10838;52.350;9.790;2023-10-31T02:54:53;7.83;;;4.70;;
9372;SDS011;10838;52.350;9.790;2023-10-31T02:57:21;5.57;;;4.27;;
9372;SDS011;10838;52.350;9.790;2023-10-31T02:59:48;9.33;;;4.77;;
9372;SDS011;10838;52.350;9.790;2023-10-31T03:02:14;8.77;;;4.97;;
9372;SDS011;10838;52.350;9.790;2023-10-31T03:04:41;4.77;;;4.47;;
9372;SDS011;10838;52.350;9.790;2023-10-31T03:07:08;4.50;;;4.10;;
9372;SDS011;10838;52.350;9.790;2023-10-31T03:09:34;4.33;;;3.80;;
9372;SDS011;10838;52.350;9.790;2023-10-31T03:12:01;3.73;;;3.43;;
9372;SDS011;10838;52.350;9.790;2023-10-31T03:14:29;3.90;;;3.60;;
9372;SDS011;10838;52.350;9.790;2023-10-31T03:16:56;4.67;;;3.10;;
9372;SDS011;10838;52.350;9.790;2023-10-31T03:19:22;3.87;;;2.80;;
9372;SDS011;10838;52.350;9.790;2023-10-31T03:21:49;3.40;;;2.87;;
9372;SDS011;10838;52.350;9.790;2023-10-31T03:24:16;2.80;;;2.60;;
9372;SDS011;10838;52.350;9.790;2023-10-31T03:26:42;2.40;;;2.30;;
9372;SDS011;10838;52.350;9.790;2023-10-31T03:29:09;3.07;;;2.43;;
9372;SDS011;10838;52.350;9.790;2023-10-31T03:31:37;2.57;;;2.10;;
9372;SDS011;10838;52.350;9.790;2023-10-31T03:34:03;2.30;;;2.20;;
9372;SDS011;10838;52.350;9.790;2023-10-31T03:36:30;3.03;;;2.70;;
9372;SDS011;10838;52.350;9.790;2023-10-31T03:38:57;3.03;;;2.87;;
9372;SDS011;10838;52.350;9.790;2023-10-31T03:41:24;3.50;;;3.20;;
9372;SDS011;10838;52.350;9.790;2023-10-31T03:43:50;3.50;;;3.40;;
9372;SDS011;10838;52.350;9.790;2023-10-31T03:46:17;3.40;;;3.20;;
9372;SDS011;10838;52.350;9.790;2023-10-31T03:48:45;3.17;;;3.00;;
9372;SDS011;10838;52.350;9.790;2023-10-31T03:51:12;3.33;;;3.13;;
9372;SDS011;10838;52.350;9.790;2023-10-31T03:53:38;3.00;;;2.90;;
9372;SDS011;10838;52.350;9.790;2023-10-31T03:56:05;3.17;;;2.97;;
9372;SDS011;10838;52.350;9.790;2023-10-31T03:58:32;3.67;;;2.50;;
9372;SDS011;10838;52.350;9.790;2023-10-31T04:00:57;2.97;;;2.87;;
9372;SDS011;10838;52.350;9.790;2023-10-31T04:03:24;3.03;;;2.70;;
9372;SDS011;10838;52.350;9.790;2023-10-31T04:05:52;2.60;;;2.50;;
9372;SDS011;10838;52.350;9.790;2023-10-31T04:08:19;2.40;;;2.33;;
9372;SDS011;10838;52.350;9.790;2023-10-31T04:10:46;2.10;;;2.00;;
9372;SDS011;10838;52.350;9.790;2023-10-31T04:13:12;2.60;;;2.00;;
9372;SDS011;10838;52.350;9.790;2023-10-31T04:15:39;1.50;;;1.50;;
9372;SDS011;10838;52.350;9.790;2023-10-31T04:18:05;1.40;;;1.40;;
9372;SDS011;10838;52.350;9.790;2023-10-31T04:20:32;1.53;;;1.50;;
9372;SDS011;10838;52.350;9.790;2023-10-31T04:23:00;1.80;;;1.43;;
9372;SDS011;10838;52.350;9.790;2023-10-31T04:25:27;1.60;;;1.50;;
9372;SDS011;10838;52.350;9.790;2023-10-31T04:27:54;1.23;;;1.20;;
9372;SDS011;10838;52.350;9.790;2023-10-31T04:30:20;1.30;;;1.20;;
9372;SDS011;10838;52.350;9.790;2023-10-31T04:32:47;2.03;;;1.20;;
9372;SDS011;10838;52.350;9.790;2023-10-31T04:35:14;1.20;;;1.20;;
9372;SDS011;10838;52.350;9.790;2023-10-31T04:37:40;2.17;;;1.07;;
9372;SDS011;10838;52.350;9.790;2023-10-31T04:40:10;1.13;;;1.00;;
9372;SDS011;10838;52.350;9.790;2023-10-31T04:42:38;1.80;;;0.73;;
9372;SDS011;10838;52.350;9.790;2023-10-31T04:45:06;0.73;;;0.73;;
9372;SDS011;10838;52.350;9.790;2023-10-31T04:47:33;1.80;;;0.80;;
9372;SDS011;10838;52.350;9.790;2023-10-31T04:50:00;1.27;;;0.57;;
9372;SDS011;10838;52.350;9.790;2023-10-31T04:52:26;1.50;;;0.60;;
9372;SDS011;10838;52.350;9.790;2023-10-31T04:54:53;0.50;;;0.50;;
9372;SDS011;10838;52.350;9.790;2023-10-31T04:57:21;0.90;;;0.50;;
9372;SDS011;10838;52.350;9.790;2023-10-31T04:59:48;0.30;;;0.30;;
9372;SDS011;10838;52.350;9.790;2023-10-31T05:02:14;0.83;;;0.40;;
9372;SDS011;10838;52.350;9.790;2023-10-31T05:04:41;0.47;;;0.47;;
9372;SDS011;10838;52.350;9.790;2023-10-31T05:07:08;0.30;;;0.30;;
9372;SDS011;10838;52.350;9.790;2023-10-31T05:09:34;0.77;;;0.50;;
9372;SDS011;10838;52.350;9.790;2023-10-31T05:12:01;0.40;;;0.40;;
9372;SDS011;10838;52.350;9.790;2023-10-31T05:14:29;1.40;;;0.40;;
9372;SDS011;10838;52.350;9.790;2023-10-31T05:16:56;0.67;;;0.67;;
9372;SDS011;10838;52.350;9.790;2023-10-31T05:19:23;0.40;;;0.30;;
9372;SDS011;10838;52.350;9.790;2023-10-31T05:21:50;2.47;;;0.50;;
9372;SDS011;10838;52.350;9.790;2023-10-31T05:24:17;0.30;;;0.30;;
9372;SDS011;10838;52.350;9.790;2023-10-31T05:26:44;2.10;;;0.43;;
9372;SDS011;10838;52.350;9.790;2023-10-31T05:29:10;0.30;;;0.30;;
9372;SDS011;10838;52.350;9.790;2023-10-31T05:31:38;0.93;;;0.23;;
9372;SDS011;10838;52.350;9.790;2023-10-31T05:34:06;0.20;;;0.20;;
9372;SDS011;10838;52.350;9.790;2023-10-31T05:36:33;1.07;;;0.33;;
9372;SDS011;10838;52.350;9.790;2023-10-31T05:38:59;0.50;;;0.20;;
9372;SDS011;10838;52.350;9.790;2023-10-31T05:41:26;3.20;;;0.50;;
9372;SDS011;10838;52.350;9.790;2023-10-31T05:43:53;0.60;;;0.40;;
9372;SDS011;10838;52.350;9.790;2023-10-31T05:46:19;0.40;;;0.40;;
9372;SDS011;10838;52.350;9.790;2023-10-31T05:48:47;0.87;;;0.40;;
9372;SDS011;10838;52.350;9.790;2023-10-31T05:51:16;2.77;;;0.50;;
9372;SDS011;10838;52.350;9.790;2023-10-31T05:53:44;0.37;;;0.37;;
9372;SDS011;10838;52.350;9.790;2023-10-31T05:56:12;2.73;;;0.50;;
9372;SDS011;10838;52.350;9.790;2023-10-31T05:58:39;3.60;;;0.47;;
9372;SDS011;10838;52.350;9.790;2023-10-31T06:01:06;0.83;;;0.50;;
9372;SDS011;10838;52.350;9.790;2023-10-31T06:03:34;3.13;;;0.77;;
9372;SDS011;10838;52.350;9.790;2023-10-31T06:06:02;0.83;;;0.80;;
9372;SDS011;10838;52.350;9.790;2023-10-31T06:08:29;2.00;;;0.70;;
9372;SDS011;10838;52.350;9.790;2023-10-31T06:10:56;2.20;;;0.83;;
9372;SDS011;10838;52.350;9.790;2023-10-31T06:13:23;0.60;;;0.60;;
9372;SDS011;10838;52.350;9.790;2023-10-31T06:15:51;1.03;;;0.83;;
9372;SDS011;10838;52.350;9.790;2023-10-31T06:18:17;1.10;;;0.90;;
9372;SDS011;10838;52.350;9.790;2023-10-31T06:20:44;1.17;;;0.70;;
9372;SDS011;10838;52.350;9.790;2023-10-31T06:23:12;1.10;;;1.10;;
9372;SDS011;10838;52.350;9.790;2023-10-31T06:25:39;0.97;;;0.90;;
9372;SDS011;10838;52.350;9.790;2023-10-31T06:28:05;0.90;;;0.90;;
9372;SDS011;10838;52.350;9.790;2023-10-31T06:30:32;1.63;;;1.00;;
9372;SDS011;10838;52.350;9.790;2023-10-31T06:32:58;2.50;;;1.20;;
9372;SDS011;10838;52.350;9.790;2023-10-31T06:35:25;2.17;;;1.27;;
9372;SDS011;10838;52.350;9.790;2023-10-31T06:37:54;2.90;;;1.20;;
9372;SDS011;10838;52.350;9.790;2023-10-31T06:40:23;3.13;;;1.20;;
9372;SDS011;10838;52.350;9.790;2023-10-31T06:42:50;2.57;;;1.30;;
9372;SDS011;10838;52.350;9.790;2023-10-31T06:45:17;1.20;;;1.20;;
9372;SDS011;10838;52.350;9.790;2023-10-31T06:47:43;2.40;;;1.40;;
9372;SDS011;10838;52.350;9.790;2023-10-31T06:50:10;3.33;;;1.27;;
9372;SDS011;10838;52.350;9.790;2023-10-31T06:52:36;2.50;;;1.60;;
9372;SDS011;10838;52.350;9.790;2023-10-31T06:55:03;2.53;;;1.57;;
9372;SDS011;10838;52.350;9.790;2023-10-31T06:57:32;1.80;;;1.70;;
9372;SDS011;10838;52.350;9.790;2023-10-31T06:59:59;1.93;;;1.73;;
9372;SDS011;10838;52.350;9.790;2023-10-31T07:02:25;1.90;;;1.67;;
9372;SDS011;10838;52.350;9.790;2023-10-31T07:04:52;3.23;;;1.97;;
9372;SDS011;10838;52.350;9.790;2023-10-31T07:07:18;2.37;;;1.50;;
9372;SDS011;10838;52.350;9.790;2023-10-31T07:09:45;3.00;;;1.60;;
9372;SDS011;10838;52.350;9.790;2023-10-31T07:12:12;1.80;;;1.50;;
9372;SDS011;10838;52.350;9.790;2023-10-31T07:14:40;1.83;;;1.37;;
9372;SDS011;10838;52.350;9.790;2023-10-31T07:17:06;3.23;;;1.40;;
9372;SDS011;10838;52.350;9.790;2023-10-31T07:19:33;5.23;;;1.53;;
9372;SDS011;10838;52.350;9.790;2023-10-31T07:21:59;2.17;;;1.40;;
9372;SDS011;10838;52.350;9.790;2023-10-31T07:24:26;1.73;;;1.60;;
9372;SDS011;10838;52.350;9.790;2023-10-31T07:26:53;2.40;;;1.90;;
9372;SDS011;10838;52.350;9.790;2023-10-31T07:29:20;2.40;;;2.00;;
9372;SDS011;10838;52.350;9.790;2023-10-31T07:31:48;4.40;;;1.47;;
9372;SDS011;10838;52.350;9.790;2023-10-31T07:34:14;2.77;;;1.40;;
9372;SDS011;10838;52.350;9.790;2023-10-31T07:36:41;2.37;;;1.40;;
9372;SDS011;10838;52.350;9.790;2023-10-31T07:39:08;1.97;;;1.27;;
9372;SDS011;10838;52.350;9.790;2023-10-31T07:41:37;3.37;;;1.50;;
9372;SDS011;10838;52.350;9.790;2023-10-31T07:44:04;2.20;;;1.37;;
9372;SDS011;10838;52.350;9.790;2023-10-31T07:46:31;1.40;;;1.30;;
9372;SDS011;10838;52.350;9.790;2023-10-31T07:48:58;2.30;;;1.50;;
9372;SDS011;10838;52.350;9.790;2023-10-31T07:51:25;1.90;;;1.10;;
9372;SDS011;10838;52.350;9.790;2023-10-31T07:53:52;1.73;;;1.27;;
9372;SDS011;10838;52.350;9.790;2023-10-31T07:56:18;1.50;;;1.40;;
9372;SDS011;10838;52.350;9.790;2023-10-31T07:58:48;3.33;;;1.40;;
9372;SDS011;10838;52.350;9.790;2023-10-31T08:01:14;1.60;;;1.47;;
9372;SDS011;10838;52.350;9.790;2023-10-31T08:03:42;1.57;;;1.10;;
9372;SDS011;10838;52.350;9.790;2023-10-31T08:06:10;2.33;;;1.10;;
9372;SDS011;10838;52.350;9.790;2023-10-31T08:08:37;2.00;;;1.10;;
9372;SDS011;10838;52.350;9.790;2023-10-31T08:11:06;1.90;;;0.90;;
9372;SDS011;10838;52.350;9.790;2023-10-31T08:13:34;1.83;;;1.00;;
9372;SDS011;10838;52.350;9.790;2023-10-31T08:16:01;1.13;;;1.03;;
9372;SDS011;10838;52.350;9.790;2023-10-31T08:18:28;0.90;;;0.90;;
9372;SDS011;10838;52.350;9.790;2023-10-31T08:20:55;0.93;;;0.90;;
9372;SDS011;10838;52.350;9.790;2023-10-31T08:23:24;0.80;;;0.80;;
9372;SDS011;10838;52.350;9.790;2023-10-31T08:25:51;1.47;;;0.80;;
9372;SDS011;10838;52.350;9.790;2023-10-31T08:28:18;0.77;;;0.77;;
9372;SDS011;10838;52.350;9.790;2023-10-31T08:30:44;2.13;;;1.10;;
9372;SDS011;10838;52.350;9.790;2023-10-31T08:33:11;1.90;;;0.80;;
9372;SDS011;10838;52.350;9.790;2023-10-31T08:35:39;1.13;;;0.90;;
9372;SDS011;10838;52.350;9.790;2023-10-31T08:38:06;4.60;;;1.20;;
9372;SDS011;10838;52.350;9.790;2023-10-31T08:40:34;0.70;;;0.70;;
9372;SDS011;10838;52.350;9.790;2023-10-31T08:43:01;1.07;;;0.90;;
9372;SDS011;10838;52.350;9.790;2023-10-31T08:45:29;2.30;;;0.80;;
9372;SDS011;10838;52.350;9.790;2023-10-31T08:47:56;1.53;;;0.80;;
9372;SDS011;10838;52.350;9.790;2023-10-31T08:50:22;0.90;;;0.90;;
9372;SDS011;10838;52.350;9.790;2023-10-31T08:52:49;0.90;;;0.90;;
9372;SDS011;10838;52.350;9.790;2023-10-31T08:55:16;0.90;;;0.80;;
9372;SDS011;10838;52.350;9.790;2023-10-31T08:57:44;1.30;;;1.13;;
9372;SDS011;10838;52.350;9.790;2023-10-31T09:00:11;1.23;;;0.80;;
9372;SDS011;10838;52.350;9.790;2023-10-31T09:02:39;2.57;;;0.83;;
9372;SDS011;10838;52.350;9.790;2023-10-31T09:05:06;1.03;;;0.70;;
9372;SDS011;10838;52.350;9.790;2023-10-31T09:07:33;1.70;;;0.80;;
9372;SDS011;10838;52.350;9.790;2023-10-31T09:10:00;1.30;;;0.87;;
9372;SDS011;10838;52.350;9.790;2023-10-31T09:12:26;4.40;;;0.90;;
9372;SDS011;10838;52.350;9.790;2023-10-31T09:14:54;0.70;;;0.70;;
9372;SDS011;10838;52.350;9.790;2023-10-31T09:17:21;1.00;;;0.90;;
9372;SDS011;10838;52.350;9.790;2023-10-31T09:19:47;0.60;;;0.60;;
9372;SDS011;10838;52.350;9.790;2023-10-31T09:22:14;1.37;;;0.80;;
9372;SDS011;10838;52.350;9.790;2023-10-31T09:24:41;0.90;;;0.90;;
9372;SDS011;10838;52.350;9.790;2023-10-31T09:27:08;0.97;;;0.90;;
9372;SDS011;10838;52.350;9.790;2023-10-31T09:29:36;1.03;;;0.90;;
9372;SDS011;10838;52.350;9.790;2023-10-31T09:32:05;5.00;;;1.10;;
9372;SDS011;10838;52.350;9.790;2023-10-31T09:34:32;0.90;;;0.70;;
9372;SDS011;10838;52.350;9.790;2023-10-31T09:36:59;0.80;;;0.80;;
9372;SDS011;10838;52.350;9.790;2023-10-31T09:39:26;0.70;;;0.70;;
9372;SDS011;10838;52.350;9.790;2023-10-31T09:41:53;2.10;;;0.70;;
9372;SDS011;10838;52.350;9.790;2023-10-31T09:44:20;2.00;;;0.70;;
9372;SDS011;10838;52.350;9.790;2023-10-31T09:46:47;0.60;;;0.60;;
9372;SDS011;10838;52.350;9.790;2023-10-31T09:49:15;2.37;;;2.00;;
9372;SDS011;10838;52.350;9.790;2023-10-31T09:51:43;2.13;;;1.03;;
9372;SDS011;10838;52.350;9.790;2023-10-31T09:54:10;2.30;;;2.10;;
9372;SDS011;10838;52.350;9.790;2023-10-31T09:56:40;0.60;;;0.60;;
9372;SDS011;10838;52.350;9.790;2023-10-31T09:59:08;0.60;;;0.60;;
9372;SDS011;10838;52.350;9.790;2023-10-31T10:01:35;1.50;;;1.40;;
9372;SDS011;10838;52.350;9.790;2023-10-31T10:04:02;0.60;;;0.60;;
9372;SDS011;10838;52.350;9.790;2023-10-31T10:06:30;0.90;;;0.90;;
9372;SDS011;10838;52.350;9.790;2023-10-31T10:08:58;1.23;;;0.80;;
9372;SDS011;10838;52.350;9.790;2023-10-31T10:11:27;1.03;;;0.50;;
9372;SDS011;10838;52.350;9.790;2023-10-31T10:13:54;0.90;;;0.90;;
9372;SDS011;10838;52.350;9.790;2023-10-31T10:16:29;1.40;;;0.60;;
9372;SDS011;10838;52.350;9.790;2023-10-31T10:18:56;0.60;;;0.60;;
9372;SDS011;10838;52.350;9.790;2023-10-31T10:21:23;0.43;;;0.43;;
9372;SDS011;10838;52.350;9.790;2023-10-31T10:23:52;0.40;;;0.40;;
9372;SDS011;10838;52.350;9.790;2023-10-31T10:26:19;0.40;;;0.40;;
9372;SDS011;10838;52.350;9.790;2023-10-31T10:28:49;0.83;;;0.60;;
9372;SDS011;10838;52.350;9.790;2023-10-31T10:31:15;0.87;;;0.53;;
9372;SDS011;10838;52.350;9.790;2023-10-31T10:33:42;1.47;;;0.57;;
9372;SDS011;10838;52.350;9.790;2023-10-31T10:36:09;0.83;;;0.80;;
9372;SDS011;10838;52.350;9.790;2023-10-31T10:38:36;1.47;;;1.20;;
9372;SDS011;10838;52.350;9.790;2023-10-31T10:41:06;1.67;;;0.70;;
9372;SDS011;10838;52.350;9.790;2023-10-31T10:43:37;1.60;;;0.80;;
9372;SDS011;10838;52.350;9.790;2023-10-31T10:46:04;2.93;;;0.67;;
9372;SDS011;10838;52.350;9.790;2023-10-31T10:48:33;1.43;;;1.17;;
9372;SDS011;10838;52.350;9.790;2023-10-31T10:51:04;2.40;;;0.60;;
9372;SDS011;10838;52.350;9.790;2023-10-31T10:53:39;0.70;;;0.70;;
9372;SDS011;10838;52.350;9.790;2023-10-31T10:56:16;0.80;;;0.77;;
9372;SDS011;10838;52.350;9.790;2023-10-31T10:58:50;1.10;;;0.80;;
9372;SDS011;10838;52.350;9.790;2023-10-31T11:01:18;3.07;;;0.80;;
9372;SDS011;10838;52.350;9.790;2023-10-31T11:03:46;1.00;;;0.70;;
9372;SDS011;10838;52.350;9.790;2023-10-31T11:06:13;1.53;;;0.70;;
9372;SDS011;10838;52.350;9.790;2023-10-31T11:08:40;3.40;;;0.63;;
9372;SDS011;10838;52.350;9.790;2023-10-31T11:11:08;2.20;;;0.90;;
9372;SDS011;10838;52.350;9.790;2023-10-31T11:13:37;3.27;;;1.10;;
9372;SDS011;10838;52.350;9.790;2023-10-31T11:16:06;3.97;;;0.90;;
9372;SDS011;10838;52.350;9.790;2023-10-31T11:18:37;0.90;;;0.90;;
9372;SDS011;10838;52.350;9.790;2023-10-31T11:21:04;1.00;;;1.00;;
9372;SDS011;10838;52.350;9.790;2023-10-31T11:23:30;0.70;;;0.70;;
9372;SDS011;10838;52.350;9.790;2023-10-31T11:25:57;1.87;;;0.87;;
9372;SDS011;10838;52.350;9.790;2023-10-31T11:28:24;1.80;;;1.37;;
9372;SDS011;10838;52.350;9.790;2023-10-31T11:30:52;1.97;;;1.03;;
9372;SDS011;10838;52.350;9.790;2023-10-31T11:33:24;1.83;;;1.73;;
9372;SDS011;10838;52.350;9.790;2023-10-31T11:35:51;1.93;;;1.10;;
9372;SDS011;10838;52.350;9.790;2023-10-31T11:38:28;3.80;;;1.00;;
9372;SDS011;10838;52.350;9.790;2023-10-31T11:40:59;1.43;;;1.40;;
9372;SDS011;10838;52.350;9.790;2023-10-31T11:43:34;1.13;;;1.03;;
9372;SDS011;10838;52.350;9.790;2023-10-31T11:46:19;0.83;;;0.83;;
9372;SDS011;10838;52.350;9.790;2023-10-31T11:48:48;1.87;;;1.10;;
9372;SDS011;10838;52.350;9.790;2023-10-31T11:51:16;2.63;;;2.10;;
9372;SDS011;10838;52.350;9.790;2023-10-31T11:53:44;1.13;;;1.07;;
9372;SDS011;10838;52.350;9.790;2023-10-31T11:56:11;0.90;;;0.90;;
9372;SDS011;10838;52.350;9.790;2023-10-31T11:58:38;1.80;;;0.87;;
9372;SDS011;10838;52.350;9.790;2023-10-31T12:01:05;1.60;;;1.00;;
9372;SDS011;10838;52.350;9.790;2023-10-31T12:03:37;2.27;;;1.30;;
9372;SDS011;10838;52.350;9.790;2023-10-31T12:06:06;1.47;;;1.10;;
9372;SDS011;10838;52.350;9.790;2023-10-31T12:08:35;1.00;;;1.00;;
9372;SDS011;10838;52.350;9.790;2023-10-31T12:11:06;1.03;;;1.00;;
9372;SDS011;10838;52.350;9.790;2023-10-31T12:13:34;1.93;;;1.73;;
9372;SDS011;10838;52.350;9.790;2023-10-31T12:16:02;1.53;;;1.20;;
9372;SDS011;10838;52.350;9.790;2023-10-31T12:18:29;1.40;;;1.10;;
9372;SDS011;10838;52.350;9.790;2023-10-31T12:20:57;1.07;;;1.07;;
9372;SDS011;10838;52.350;9.790;2023-10-31T12:23:24;3.13;;;1.40;;
9372;SDS011;10838;52.350;9.790;2023-10-31T12:25:51;2.00;;;1.90;;
9372;SDS011;10838;52.350;9.790;2023-10-31T12:28:18;1.27;;;1.17;;
9372;SDS011;10838;52.350;9.790;2023-10-31T12:30:45;1.30;;;0.90;;
9372;SDS011;10838;52.350;9.790;2023-10-31T12:33:12;2.07;;;1.20;;
9372;SDS011;10838;52.350;9.790;2023-10-31T12:35:39;1.27;;;1.20;;
9372;SDS011;10838;52.350;9.790;2023-10-31T12:38:08;1.90;;;1.30;;
9372;SDS011;10838;52.350;9.790;2023-10-31T12:40:37;0.90;;;0.90;;
9372;SDS011;10838;52.350;9.790;2023-10-31T12:43:04;3.83;;;1.53;;
9372;SDS011;10838;52.350;9.790;2023-10-31T12:45:31;3.47;;;1.50;;
9372;SDS011;10838;52.350;9.790;2023-10-31T12:48:01;2.37;;;1.20;;
9372;SDS011;10838;52.350;9.790;2023-10-31T12:50:29;2.17;;;1.60;;
9372;SDS011;10838;52.350;9.790;2023-10-31T12:52:56;3.47;;;1.70;;
9372;SDS011;10838;52.350;9.790;2023-10-31T12:55:26;2.93;;;2.27;;
9372;SDS011;10838;52.350;9.790;2023-10-31T12:57:53;4.67;;;2.43;;
9372;SDS011;10838;52.350;9.790;2023-10-31T13:00:22;2.00;;;1.90;;
9372;SDS011;10838;52.350;9.790;2023-10-31T13:02:52;1.93;;;1.83;;
9372;SDS011;10838;52.350;9.790;2023-10-31T13:05:25;2.50;;;2.30;;
9372;SDS011;10838;52.350;9.790;2023-10-31T13:07:53;2.33;;;1.97;;
9372;SDS011;10838;52.350;9.790;2023-10-31T13:10:21;2.87;;;1.97;;
9372;SDS011;10838;52.350;9.790;2023-10-31T13:12:50;2.20;;;2.00;;
9372;SDS011;10838;52.350;9.790;2023-10-31T13:15:17;4.97;;;2.33;;
9372;SDS011;10838;52.350;9.790;2023-10-31T13:17:45;2.10;;;1.87;;
9372;SDS011;10838;52.350;9.790;2023-10-31T13:20:13;2.00;;;1.90;;
9372;SDS011;10838;52.350;9.790;2023-10-31T13:22:41;2.03;;;1.87;;
9372;SDS011;10838;52.350;9.790;2023-10-31T13:25:08;2.73;;;1.70;;
9372;SDS011;10838;52.350;9.790;2023-10-31T13:27:37;2.17;;;1.97;;
9372;SDS011;10838;52.350;9.790;2023-10-31T13:30:07;2.20;;;2.00;;
9372;SDS011;10838;52.350;9.790;2023-10-31T13:32:35;3.97;;;1.90;;
9372;SDS011;10838;52.350;9.790;2023-10-31T13:35:02;5.13;;;2.10;;
9372;SDS011;10838;52.350;9.790;2023-10-31T13:37:30;2.60;;;2.27;;
9372;SDS011;10838;52.350;9.790;2023-10-31T13:39:56;1.90;;;1.77;;
9372;SDS011;10838;52.350;9.790;2023-10-31T13:42:23;2.37;;;1.87;;
9372;SDS011;10838;52.350;9.790;2023-10-31T13:44:51;1.90;;;1.80;;
9372;SDS011;10838;52.350;9.790;2023-10-31T13:47:19;2.30;;;2.10;;
9372;SDS011;10838;52.350;9.790;2023-10-31T13:49:46;1.90;;;1.80;;
9372;SDS011;10838;52.350;9.790;2023-10-31T13:52:13;3.60;;;2.00;;
9372;SDS011;10838;52.350;9.790;2023-10-31T13:54:40;3.67;;;2.27;;
9372;SDS011;10838;52.350;9.790;2023-10-31T13:57:06;3.80;;;2.07;;
9372;SDS011;10838;52.350;9.790;2023-10-31T13:59:33;1.97;;;1.77;;
9372;SDS011;10838;52.350;9.790;2023-10-31T14:02:00;1.80;;;1.60;;
9372;SDS011;10838;52.350;9.790;2023-10-31T14:04:28;4.17;;;2.43;;
9372;SDS011;10838;52.350;9.790;2023-10-31T14:06:55;2.27;;;2.07;;
9372;SDS011;10838;52.350;9.790;2023-10-31T14:09:22;2.27;;;2.17;;
9372;SDS011;10838;52.350;9.790;2023-10-31T14:11:49;3.73;;;2.40;;
9372;SDS011;10838;52.350;9.790;2023-10-31T14:14:15;2.67;;;2.03;;
9372;SDS011;10838;52.350;9.790;2023-10-31T14:16:43;2.73;;;2.33;;
9372;SDS011;10838;52.350;9.790;2023-10-31T14:19:10;3.80;;;3.50;;
9372;SDS011;10838;52.350;9.790;2023-10-31T14:21:39;4.23;;;3.60;;
9372;SDS011;10838;52.350;9.790;2023-10-31T14:24:07;4.87;;;4.47;;
9372;SDS011;10838;52.350;9.790;2023-10-31T14:26:34;6.83;;;4.10;;
9372;SDS011;10838;52.350;9.790;2023-10-31T14:29:02;5.70;;;4.93;;
9372;SDS011;10838;52.350;9.790;2023-10-31T14:31:29;5.47;;;4.33;;
9372;SDS011;10838;52.350;9.790;2023-10-31T14:33:55;5.53;;;5.00;;
9372;SDS011;10838;52.350;9.790;2023-10-31T14:36:22;6.30;;;5.70;;
9372;SDS011;10838;52.350;9.790;2023-10-31T14:38:51;10.53;;;7.70;;
9372;SDS011;10838;52.350;9.790;2023-10-31T14:41:17;7.57;;;4.37;;
9372;SDS011;10838;52.350;9.790;2023-10-31T14:43:44;6.43;;;5.77;;
9372;SDS011;10838;52.350;9.790;2023-10-31T14:46:11;10.20;;;8.70;;
9372;SDS011;10838;52.350;9.790;2023-10-31T14:48:37;10.00;;;8.07;;
9372;SDS011;10838;52.350;9.790;2023-10-31T14:51:04;7.07;;;6.37;;
9372;SDS011;10838;52.350;9.790;2023-10-31T14:53:31;6.70;;;6.10;;
9372;SDS011;10838;52.350;9.790;2023-10-31T14:55:59;6.63;;;5.90;;
9372;SDS011;10838;52.350;9.790;2023-10-31T14:58:26;5.87;;;5.37;;
9372;SDS011;10838;52.350;9.790;2023-10-31T15:00:53;6.57;;;5.63;;